sensor_id;sensor_type;location;lat;lon;timestamp;temperature;humidity
46137;DHT22;31871;49.418;8.752;2022-09-30T00:01:43;10.80;99.90
46137;DHT22;31871;49.418;8.752;2022-09-30T00:04:13;10.80;99.90
46137;DHT22;31871;49.418;8.752;2022-09-30T00:06:39;10.80;99.90
46137;DHT22;31871;49.418;8.752;2022-09-30T00:09:04;10.80;99.90
46137;DHT22;31871;49.418;8.752;2022-09-30T00:11:32;10.80;99.90
46137;DHT22;31871;49.418;8.752;2022-09-30T00:13:58;10.80;99.90
46137;DHT22;31871;49.418;8.752;2022-09-30T00:16:26;10.80;99.90
46137;DHT22;31871;49.418;8.752;2022-09-30T00:18:54;10.70;99.90
46137;DHT22;31871;49.418;8.752;2022-09-30T00:21:21;10.70;99.90
46137;DHT22;31871;49.418;8.752;2022-09-30T00:23:47;10.70;99.90
46137;DHT22;31871;49.418;8.752;2022-09-30T00:26:16;10.70;99.90
46137;DHT22;31871;49.418;8.752;2022-09-30T00:28:43;10.70;99.90
46137;DHT22;31871;49.418;8.752;2022-09-30T00:31:14;10.70;99.90
46137;DHT22;31871;49.418;8.752;2022-09-30T00:33:40;10.60;99.90
46137;DHT22;31871;49.418;8.752;2022-09-30T00:36:06;10.60;99.90
46137;DHT22;31871;49.418;8.752;2022-09-30T00:38:32;10.60;99.90
46137;DHT22;31871;49.418;8.752;2022-09-30T00:40:58;10.60;99.90
46137;DHT22;31871;49.418;8.752;2022-09-30T00:46:15;10.60;99.90
46137;DHT22;31871;49.418;8.752;2022-09-30T00:48:44;10.50;99.90
46137;DHT22;31871;49.418;8.752;2022-09-30T00:51:11;10.50;99.90
46137;DHT22;31871;49.418;8.752;2022-09-30T00:53:56;10.50;99.90
46137;DHT22;31871;49.418;8.752;2022-09-30T00:56:26;10.50;99.90
46137;DHT22;31871;49.418;8.752;2022-09-30T01:01:45;10.50;99.90
46137;DHT22;31871;49.418;8.752;2022-09-30T01:04:13;10.50;99.90
46137;DHT22;31871;49.418;8.752;2022-09-30T01:06:40;10.50;99.90
46137;DHT22;31871;49.418;8.752;2022-09-30T01:09:06;10.50;99.90
46137;DHT22;31871;49.418;8.752;2022-09-30T01:11:32;10.40;99.90
46137;DHT22;31871;49.418;8.752;2022-09-30T01:14:04;10.40;99.90
46137;DHT22;31871;49.418;8.752;2022-09-30T01:16:54;10.40;99.90
46137;DHT22;31871;49.418;8.752;2022-09-30T01:19:58;10.40;99.90
46137;DHT22;31871;49.418;8.752;2022-09-30T01:31:23;10.30;99.90
46137;DHT22;31871;49.418;8.752;2022-09-30T01:36:54;10.30;99.90
46137;DHT22;31871;49.418;8.752;2022-09-30T01:39:42;10.40;99.90
46137;DHT22;31871;49.418;8.752;2022-09-30T01:42:47;10.30;99.90
46137;DHT22;31871;49.418;8.752;2022-09-30T01:45:31;10.30;99.90
46137;DHT22;31871;49.418;8.752;2022-09-30T01:48:08;10.30;99.90
46137;DHT22;31871;49.418;8.752;2022-09-30T01:50:44;10.30;99.90
46137;DHT22;31871;49.418;8.752;2022-09-30T01:53:24;10.20;99.90
46137;DHT22;31871;49.418;8.752;2022-09-30T01:56:03;10.20;99.90
46137;DHT22;31871;49.418;8.752;2022-09-30T02:01:35;10.20;99.90
46137;DHT22;31871;49.418;8.752;2022-09-30T02:04:10;10.20;99.90
46137;DHT22;31871;49.418;8.752;2022-09-30T02:06:41;10.20;99.90
46137;DHT22;31871;49.418;8.752;2022-09-30T02:09:23;10.10;99.90
46137;DHT22;31871;49.418;8.752;2022-09-30T02:11:51;10.10;99.90
46137;DHT22;31871;49.418;8.752;2022-09-30T02:14:39;10.10;99.90
46137;DHT22;31871;49.418;8.752;2022-09-30T02:17:25;10.10;99.90
46137;DHT22;31871;49.418;8.752;2022-09-30T02:19:57;10.20;99.90
46137;DHT22;31871;49.418;8.752;2022-09-30T02:22:29;10.30;99.90
46137;DHT22;31871;49.418;8.752;2022-09-30T02:25:02;10.30;99.90
46137;DHT22;31871;49.418;8.752;2022-09-30T02:27:33;10.30;99.90
46137;DHT22;31871;49.418;8.752;2022-09-30T02:30:05;10.30;99.90
46137;DHT22;31871;49.418;8.752;2022-09-30T02:32:39;10.40;99.90
46137;DHT22;31871;49.418;8.752;2022-09-30T02:35:16;10.40;99.90
46137;DHT22;31871;49.418;8.752;2022-09-30T02:37:48;10.40;99.90
46137;DHT22;31871;49.418;8.752;2022-09-30T02:40:26;10.30;99.90
46137;DHT22;31871;49.418;8.752;2022-09-30T02:42:52;10.30;99.90
46137;DHT22;31871;49.418;8.752;2022-09-30T02:45:21;10.20;99.90
46137;DHT22;31871;49.418;8.752;2022-09-30T02:50:53;10.20;99.90
46137;DHT22;31871;49.418;8.752;2022-09-30T02:53:32;10.20;99.90
46137;DHT22;31871;49.418;8.752;2022-09-30T02:56:10;10.20;99.90
46137;DHT22;31871;49.418;8.752;2022-09-30T02:58:38;10.20;99.90
46137;DHT22;31871;49.418;8.752;2022-09-30T03:01:09;10.20;99.90
46137;DHT22;31871;49.418;8.752;2022-09-30T03:03:43;10.20;99.90
46137;DHT22;31871;49.418;8.752;2022-09-30T03:06:11;10.20;99.90
46137;DHT22;31871;49.418;8.752;2022-09-30T03:08:37;10.20;99.90
46137;DHT22;31871;49.418;8.752;2022-09-30T03:11:03;10.20;99.90
46137;DHT22;31871;49.418;8.752;2022-09-30T03:13:50;10.20;99.90
46137;DHT22;31871;49.418;8.752;2022-09-30T03:16:35;10.20;99.90
46137;DHT22;31871;49.418;8.752;2022-09-30T03:19:31;10.20;99.90
46137;DHT22;31871;49.418;8.752;2022-09-30T03:30:31;10.10;99.90
46137;DHT22;31871;49.418;8.752;2022-09-30T03:33:08;10.00;99.90
46137;DHT22;31871;49.418;8.752;2022-09-30T03:35:55;10.00;99.90
46137;DHT22;31871;49.418;8.752;2022-09-30T03:44:10;10.00;99.90
46137;DHT22;31871;49.418;8.752;2022-09-30T03:46:46;10.00;99.90
46137;DHT22;31871;49.418;8.752;2022-09-30T03:49:38;10.00;99.90
46137;DHT22;31871;49.418;8.752;2022-09-30T03:52:06;10.00;99.90
46137;DHT22;31871;49.418;8.752;2022-09-30T03:54:32;10.00;99.90
46137;DHT22;31871;49.418;8.752;2022-09-30T03:56:58;10.00;99.90
46137;DHT22;31871;49.418;8.752;2022-09-30T03:59:27;10.00;99.90
46137;DHT22;31871;49.418;8.752;2022-09-30T04:01:53;10.00;99.90
46137;DHT22;31871;49.418;8.752;2022-09-30T04:04:20;10.00;99.90
46137;DHT22;31871;49.418;8.752;2022-09-30T04:06:45;10.00;99.90
46137;DHT22;31871;49.418;8.752;2022-09-30T04:09:11;10.00;99.90
46137;DHT22;31871;49.418;8.752;2022-09-30T04:11:37;9.90;99.90
46137;DHT22;31871;49.418;8.752;2022-09-30T04:14:03;9.90;99.90
46137;DHT22;31871;49.418;8.752;2022-09-30T04:16:30;9.90;99.90
46137;DHT22;31871;49.418;8.752;2022-09-30T04:18:56;9.90;99.90
46137;DHT22;31871;49.418;8.752;2022-09-30T04:21:22;9.90;99.90
46137;DHT22;31871;49.418;8.752;2022-09-30T04:23:48;9.90;99.90
46137;DHT22;31871;49.418;8.752;2022-09-30T04:26:15;10.00;99.90
46137;DHT22;31871;49.418;8.752;2022-09-30T04:28:41;9.90;99.90
46137;DHT22;31871;49.418;8.752;2022-09-30T04:31:09;9.90;99.90
46137;DHT22;31871;49.418;8.752;2022-09-30T04:33:36;9.90;99.90
46137;DHT22;31871;49.418;8.752;2022-09-30T04:36:02;9.80;99.90
46137;DHT22;31871;49.418;8.752;2022-09-30T04:38:28;9.80;99.90
46137;DHT22;31871;49.418;8.752;2022-09-30T04:40:54;9.80;99.90
46137;DHT22;31871;49.418;8.752;2022-09-30T04:43:20;9.80;99.90
46137;DHT22;31871;49.418;8.752;2022-09-30T04:45:50;9.80;99.90
46137;DHT22;31871;49.418;8.752;2022-09-30T04:48:19;9.80;99.90
46137;DHT22;31871;49.418;8.752;2022-09-30T04:50:47;9.80;99.90
46137;DHT22;31871;49.418;8.752;2022-09-30T04:53:13;9.80;99.90
46137;DHT22;31871;49.418;8.752;2022-09-30T04:55:40;9.80;99.90
46137;DHT22;31871;49.418;8.752;2022-09-30T04:58:05;9.80;99.90
46137;DHT22;31871;49.418;8.752;2022-09-30T05:00:31;9.80;99.90
46137;DHT22;31871;49.418;8.752;2022-09-30T05:02:56;9.80;99.90
46137;DHT22;31871;49.418;8.752;2022-09-30T05:05:22;9.70;99.90
46137;DHT22;31871;49.418;8.752;2022-09-30T05:07:48;9.70;99.90
46137;DHT22;31871;49.418;8.752;2022-09-30T05:10:13;9.80;99.90
46137;DHT22;31871;49.418;8.752;2022-09-30T05:12:40;9.80;99.90
46137;DHT22;31871;49.418;8.752;2022-09-30T05:15:07;9.70;99.90
46137;DHT22;31871;49.418;8.752;2022-09-30T05:17:33;9.70;99.90
46137;DHT22;31871;49.418;8.752;2022-09-30T05:19:59;9.60;99.90
46137;DHT22;31871;49.418;8.752;2022-09-30T05:22:25;9.60;99.90
46137;DHT22;31871;49.418;8.752;2022-09-30T05:24:51;9.60;99.90
46137;DHT22;31871;49.418;8.752;2022-09-30T05:27:17;9.60;99.90
46137;DHT22;31871;49.418;8.752;2022-09-30T05:29:43;9.70;99.90
46137;DHT22;31871;49.418;8.752;2022-09-30T05:32:09;9.60;99.90
46137;DHT22;31871;49.418;8.752;2022-09-30T05:34:35;9.70;99.90
46137;DHT22;31871;49.418;8.752;2022-09-30T05:37:03;9.70;99.90
46137;DHT22;31871;49.418;8.752;2022-09-30T05:39:28;9.70;99.90
46137;DHT22;31871;49.418;8.752;2022-09-30T05:41:56;9.70;99.90
46137;DHT22;31871;49.418;8.752;2022-09-30T05:44:21;9.60;99.90
46137;DHT22;31871;49.418;8.752;2022-09-30T05:46:47;9.60;99.90
46137;DHT22;31871;49.418;8.752;2022-09-30T05:49:12;9.60;99.90
46137;DHT22;31871;49.418;8.752;2022-09-30T05:51:38;9.60;99.90
46137;DHT22;31871;49.418;8.752;2022-09-30T05:54:04;9.60;99.90
46137;DHT22;31871;49.418;8.752;2022-09-30T05:56:29;9.50;99.90
46137;DHT22;31871;49.418;8.752;2022-09-30T05:58:55;9.50;99.90
46137;DHT22;31871;49.418;8.752;2022-09-30T06:01:20;9.40;99.90
46137;DHT22;31871;49.418;8.752;2022-09-30T06:03:46;9.50;99.90
46137;DHT22;31871;49.418;8.752;2022-09-30T06:06:13;9.60;99.90
46137;DHT22;31871;49.418;8.752;2022-09-30T06:08:40;9.50;99.90
46137;DHT22;31871;49.418;8.752;2022-09-30T06:11:14;9.40;99.90
46137;DHT22;31871;49.418;8.752;2022-09-30T06:13:42;9.40;99.90
46137;DHT22;31871;49.418;8.752;2022-09-30T06:16:09;9.30;99.90
46137;DHT22;31871;49.418;8.752;2022-09-30T06:18:35;9.40;99.90
46137;DHT22;31871;49.418;8.752;2022-09-30T06:21:02;9.40;99.90
46137;DHT22;31871;49.418;8.752;2022-09-30T06:23:29;9.40;99.90
46137;DHT22;31871;49.418;8.752;2022-09-30T06:25:56;9.40;99.90
46137;DHT22;31871;49.418;8.752;2022-09-30T06:28:23;9.30;99.90
46137;DHT22;31871;49.418;8.752;2022-09-30T06:30:49;9.20;99.90
46137;DHT22;31871;49.418;8.752;2022-09-30T06:33:15;9.20;99.90
46137;DHT22;31871;49.418;8.752;2022-09-30T06:35:41;9.20;99.90
46137;DHT22;31871;49.418;8.752;2022-09-30T06:38:08;9.20;99.90
46137;DHT22;31871;49.418;8.752;2022-09-30T06:40:34;9.30;99.90
46137;DHT22;31871;49.418;8.752;2022-09-30T06:43:00;9.30;99.90
46137;DHT22;31871;49.418;8.752;2022-09-30T06:45:26;9.40;99.90
46137;DHT22;31871;49.418;8.752;2022-09-30T06:47:59;9.50;99.90
46137;DHT22;31871;49.418;8.752;2022-09-30T06:50:25;9.60;99.90
46137;DHT22;31871;49.418;8.752;2022-09-30T06:52:51;9.70;99.90
46137;DHT22;31871;49.418;8.752;2022-09-30T06:55:17;9.80;99.90
46137;DHT22;31871;49.418;8.752;2022-09-30T06:57:44;9.90;99.90
46137;DHT22;31871;49.418;8.752;2022-09-30T07:00:10;9.90;99.90
46137;DHT22;31871;49.418;8.752;2022-09-30T07:02:36;10.10;99.90
46137;DHT22;31871;49.418;8.752;2022-09-30T07:05:03;10.30;99.90
46137;DHT22;31871;49.418;8.752;2022-09-30T07:07:28;10.40;99.90
46137;DHT22;31871;49.418;8.752;2022-09-30T07:09:54;10.30;99.90
46137;DHT22;31871;49.418;8.752;2022-09-30T07:12:19;10.20;99.90
46137;DHT22;31871;49.418;8.752;2022-09-30T07:14:45;10.10;99.90
46137;DHT22;31871;49.418;8.752;2022-09-30T07:17:11;10.00;99.90
46137;DHT22;31871;49.418;8.752;2022-09-30T07:19:36;9.90;99.90
46137;DHT22;31871;49.418;8.752;2022-09-30T07:22:02;9.90;99.90
46137;DHT22;31871;49.418;8.752;2022-09-30T07:24:47;9.90;99.90
46137;DHT22;31871;49.418;8.752;2022-09-30T07:27:13;10.00;99.90
46137;DHT22;31871;49.418;8.752;2022-09-30T07:29:41;10.30;99.90
46137;DHT22;31871;49.418;8.752;2022-09-30T07:32:08;10.50;99.90
46137;DHT22;31871;49.418;8.752;2022-09-30T07:34:35;10.70;99.90
46137;DHT22;31871;49.418;8.752;2022-09-30T07:37:01;10.80;99.90
46137;DHT22;31871;49.418;8.752;2022-09-30T07:39:28;11.00;99.90
46137;DHT22;31871;49.418;8.752;2022-09-30T07:41:55;11.10;99.90
46137;DHT22;31871;49.418;8.752;2022-09-30T07:44:21;11.20;99.90
46137;DHT22;31871;49.418;8.752;2022-09-30T07:46:50;11.30;99.90
46137;DHT22;31871;49.418;8.752;2022-09-30T07:49:16;11.40;99.90
46137;DHT22;31871;49.418;8.752;2022-09-30T07:51:50;11.50;99.90
46137;DHT22;31871;49.418;8.752;2022-09-30T07:54:19;11.70;99.90
46137;DHT22;31871;49.418;8.752;2022-09-30T07:56:45;11.80;99.90
46137;DHT22;31871;49.418;8.752;2022-09-30T07:59:11;12.00;99.90
46137;DHT22;31871;49.418;8.752;2022-09-30T08:01:37;12.10;99.90
46137;DHT22;31871;49.418;8.752;2022-09-30T08:04:07;12.30;99.90
46137;DHT22;31871;49.418;8.752;2022-09-30T08:06:37;12.40;99.90
46137;DHT22;31871;49.418;8.752;2022-09-30T08:09:04;12.40;99.90
46137;DHT22;31871;49.418;8.752;2022-09-30T08:11:33;12.50;99.90
46137;DHT22;31871;49.418;8.752;2022-09-30T08:13:59;12.60;99.90
46137;DHT22;31871;49.418;8.752;2022-09-30T08:16:25;12.60;99.90
46137;DHT22;31871;49.418;8.752;2022-09-30T08:18:59;12.70;99.90
46137;DHT22;31871;49.418;8.752;2022-09-30T08:21:26;12.70;99.90
46137;DHT22;31871;49.418;8.752;2022-09-30T08:23:52;12.70;99.90
46137;DHT22;31871;49.418;8.752;2022-09-30T08:26:18;12.60;99.90
46137;DHT22;31871;49.418;8.752;2022-09-30T08:28:45;12.70;99.90
46137;DHT22;31871;49.418;8.752;2022-09-30T08:31:21;12.80;99.90
46137;DHT22;31871;49.418;8.752;2022-09-30T08:33:47;13.00;99.90
46137;DHT22;31871;49.418;8.752;2022-09-30T08:36:15;13.10;99.90
46137;DHT22;31871;49.418;8.752;2022-09-30T08:38:41;13.10;99.90
46137;DHT22;31871;49.418;8.752;2022-09-30T08:52:21;13.00;99.90
46137;DHT22;31871;49.418;8.752;2022-09-30T08:54:50;13.00;99.90
46137;DHT22;31871;49.418;8.752;2022-09-30T08:57:17;13.20;99.90
46137;DHT22;31871;49.418;8.752;2022-09-30T08:59:53;13.20;99.90
46137;DHT22;31871;49.418;8.752;2022-09-30T09:02:35;13.10;99.90
46137;DHT22;31871;49.418;8.752;2022-09-30T09:05:04;13.00;99.90
46137;DHT22;31871;49.418;8.752;2022-09-30T09:10:23;13.00;99.90
46137;DHT22;31871;49.418;8.752;2022-09-30T09:15:41;13.20;99.90
46137;DHT22;31871;49.418;8.752;2022-09-30T09:20:58;13.70;99.90
46137;DHT22;31871;49.418;8.752;2022-09-30T09:23:25;13.90;99.90
46137;DHT22;31871;49.418;8.752;2022-09-30T09:25:52;14.10;99.90
46137;DHT22;31871;49.418;8.752;2022-09-30T09:28:35;14.30;99.90
46137;DHT22;31871;49.418;8.752;2022-09-30T09:31:03;14.60;99.90
46137;DHT22;31871;49.418;8.752;2022-09-30T09:33:31;14.80;99.90
46137;DHT22;31871;49.418;8.752;2022-09-30T09:38:53;15.10;99.90
46137;DHT22;31871;49.418;8.752;2022-09-30T09:41:35;15.30;99.90
46137;DHT22;31871;49.418;8.752;2022-09-30T09:44:45;15.40;99.90
46137;DHT22;31871;49.418;8.752;2022-09-30T09:47:16;15.30;99.90
46137;DHT22;31871;49.418;8.752;2022-09-30T09:49:44;15.30;99.90
46137;DHT22;31871;49.418;8.752;2022-09-30T09:54:50;15.60;99.90
46137;DHT22;31871;49.418;8.752;2022-09-30T09:57:21;15.90;99.90
46137;DHT22;31871;49.418;8.752;2022-09-30T10:00:11;16.10;99.90
46137;DHT22;31871;49.418;8.752;2022-09-30T10:03:08;16.30;99.90
46137;DHT22;31871;49.418;8.752;2022-09-30T10:05:36;16.60;99.90
46137;DHT22;31871;49.418;8.752;2022-09-30T10:08:13;16.60;99.90
46137;DHT22;31871;49.418;8.752;2022-09-30T10:10:48;16.70;99.90
46137;DHT22;31871;49.418;8.752;2022-09-30T10:13:21;16.90;99.90
46137;DHT22;31871;49.418;8.752;2022-09-30T10:15:48;17.00;99.90
46137;DHT22;31871;49.418;8.752;2022-09-30T10:18:36;17.20;99.90
46137;DHT22;31871;49.418;8.752;2022-09-30T10:21:04;17.30;99.90
46137;DHT22;31871;49.418;8.752;2022-09-30T10:23:34;17.20;99.90
46137;DHT22;31871;49.418;8.752;2022-09-30T10:26:15;17.20;99.90
46137;DHT22;31871;49.418;8.752;2022-09-30T10:31:26;17.50;99.90
46137;DHT22;31871;49.418;8.752;2022-09-30T10:34:09;17.70;99.90
46137;DHT22;31871;49.418;8.752;2022-09-30T10:36:38;17.90;99.90
46137;DHT22;31871;49.418;8.752;2022-09-30T10:39:52;17.90;99.90
46137;DHT22;31871;49.418;8.752;2022-09-30T10:44:29;18.00;99.90
46137;DHT22;31871;49.418;8.752;2022-09-30T10:47:00;18.10;99.90
46137;DHT22;31871;49.418;8.752;2022-09-30T10:49:44;18.10;99.90
46137;DHT22;31871;49.418;8.752;2022-09-30T10:52:19;17.90;99.90
46137;DHT22;31871;49.418;8.752;2022-09-30T10:54:50;17.80;99.90
46137;DHT22;31871;49.418;8.752;2022-09-30T10:57:23;17.70;99.90
46137;DHT22;31871;49.418;8.752;2022-09-30T10:59:56;17.60;99.90
46137;DHT22;31871;49.418;8.752;2022-09-30T11:05:26;17.10;99.90
46137;DHT22;31871;49.418;8.752;2022-09-30T11:07:53;16.80;99.90
46137;DHT22;31871;49.418;8.752;2022-09-30T11:21:51;16.40;99.90
46137;DHT22;31871;49.418;8.752;2022-09-30T11:24:38;16.30;99.90
46137;DHT22;31871;49.418;8.752;2022-09-30T11:29:58;16.00;99.90
46137;DHT22;31871;49.418;8.752;2022-09-30T11:35:45;15.80;99.90
46137;DHT22;31871;49.418;8.752;2022-09-30T11:49:39;16.30;99.90
46137;DHT22;31871;49.418;8.752;2022-09-30T11:52:42;16.10;99.90
46137;DHT22;31871;49.418;8.752;2022-09-30T11:55:39;15.90;99.90
46137;DHT22;31871;49.418;8.752;2022-09-30T11:58:06;15.80;99.90
46137;DHT22;31871;49.418;8.752;2022-09-30T12:00:36;15.80;99.90
46137;DHT22;31871;49.418;8.752;2022-09-30T12:03:24;15.60;99.90
46137;DHT22;31871;49.418;8.752;2022-09-30T12:05:53;15.50;99.90
46137;DHT22;31871;49.418;8.752;2022-09-30T12:08:29;15.50;99.90
46137;DHT22;31871;49.418;8.752;2022-09-30T12:11:00;15.40;99.90
46137;DHT22;31871;49.418;8.752;2022-09-30T12:13:30;15.50;99.90
46137;DHT22;31871;49.418;8.752;2022-09-30T12:15:58;15.60;99.90
46137;DHT22;31871;49.418;8.752;2022-09-30T12:18:41;15.70;99.90
46137;DHT22;31871;49.418;8.752;2022-09-30T12:24:12;15.70;99.90
46137;DHT22;31871;49.418;8.752;2022-09-30T12:26:40;15.70;99.90
46137;DHT22;31871;49.418;8.752;2022-09-30T12:29:30;15.60;99.90
46137;DHT22;31871;49.418;8.752;2022-09-30T12:32:20;15.60;99.90
46137;DHT22;31871;49.418;8.752;2022-09-30T12:48:55;15.90;99.90
46137;DHT22;31871;49.418;8.752;2022-09-30T12:51:33;16.00;99.90
46137;DHT22;31871;49.418;8.752;2022-09-30T12:56:43;16.20;99.90
46137;DHT22;31871;49.418;8.752;2022-09-30T12:59:09;16.20;99.90
46137;DHT22;31871;49.418;8.752;2022-09-30T13:01:36;16.30;99.90
46137;DHT22;31871;49.418;8.752;2022-09-30T13:25:16;18.20;99.90
46137;DHT22;31871;49.418;8.752;2022-09-30T13:27:45;18.40;99.90
46137;DHT22;31871;49.418;8.752;2022-09-30T13:32:46;18.70;99.90
46137;DHT22;31871;49.418;8.752;2022-09-30T13:35:29;18.80;99.90
46137;DHT22;31871;49.418;8.752;2022-09-30T13:40:46;18.60;99.80
46137;DHT22;31871;49.418;8.752;2022-09-30T13:43:38;18.50;99.50
46137;DHT22;31871;49.418;8.752;2022-09-30T13:46:32;18.50;99.50
46137;DHT22;31871;49.418;8.752;2022-09-30T13:49:11;18.20;99.90
46137;DHT22;31871;49.418;8.752;2022-09-30T13:51:38;17.80;99.90
46137;DHT22;31871;49.418;8.752;2022-09-30T13:54:10;17.60;99.90
46137;DHT22;31871;49.418;8.752;2022-09-30T13:56:39;17.80;99.90
46137;DHT22;31871;49.418;8.752;2022-09-30T14:02:22;17.90;99.90
46137;DHT22;31871;49.418;8.752;2022-09-30T14:11:24;17.60;99.90
46137;DHT22;31871;49.418;8.752;2022-09-30T14:17:05;17.60;99.90
46137;DHT22;31871;49.418;8.752;2022-09-30T14:22:08;18.20;99.90
46137;DHT22;31871;49.418;8.752;2022-09-30T14:24:36;18.50;99.90
46137;DHT22;31871;49.418;8.752;2022-09-30T14:32:42;18.40;99.90
46137;DHT22;31871;49.418;8.752;2022-09-30T14:35:17;18.40;99.10
46137;DHT22;31871;49.418;8.752;2022-09-30T14:37:50;18.90;98.00
46137;DHT22;31871;49.418;8.752;2022-09-30T14:40:28;19.40;95.10
46137;DHT22;31871;49.418;8.752;2022-09-30T14:42:58;19.80;94.20
46137;DHT22;31871;49.418;8.752;2022-09-30T14:45:39;19.70;94.90
46137;DHT22;31871;49.418;8.752;2022-09-30T14:48:22;19.60;94.90
46137;DHT22;31871;49.418;8.752;2022-09-30T14:50:57;19.80;94.30
46137;DHT22;31871;49.418;8.752;2022-09-30T14:53:33;20.20;93.40
46137;DHT22;31871;49.418;8.752;2022-09-30T14:56:00;20.30;93.20
46137;DHT22;31871;49.418;8.752;2022-09-30T14:58:30;20.30;92.90
46137;DHT22;31871;49.418;8.752;2022-09-30T15:01:09;20.30;93.40
46137;DHT22;31871;49.418;8.752;2022-09-30T15:03:40;20.10;93.20
46137;DHT22;31871;49.418;8.752;2022-09-30T15:06:19;19.30;95.70
46137;DHT22;31871;49.418;8.752;2022-09-30T15:08:47;18.70;98.30
46137;DHT22;31871;49.418;8.752;2022-09-30T15:11:18;18.00;99.90
46137;DHT22;31871;49.418;8.752;2022-09-30T15:13:44;17.60;99.90
46137;DHT22;31871;49.418;8.752;2022-09-30T15:16:23;17.20;99.90
46137;DHT22;31871;49.418;8.752;2022-09-30T15:18:49;17.10;99.90
46137;DHT22;31871;49.418;8.752;2022-09-30T15:21:15;17.00;99.90
46137;DHT22;31871;49.418;8.752;2022-09-30T15:23:47;17.10;99.90
46137;DHT22;31871;49.418;8.752;2022-09-30T15:26:20;17.40;99.90
46137;DHT22;31871;49.418;8.752;2022-09-30T15:28:47;17.60;99.90
46137;DHT22;31871;49.418;8.752;2022-09-30T15:31:25;17.70;99.90
46137;DHT22;31871;49.418;8.752;2022-09-30T15:36:38;17.90;99.90
46137;DHT22;31871;49.418;8.752;2022-09-30T15:39:04;17.90;99.90
46137;DHT22;31871;49.418;8.752;2022-09-30T15:41:38;17.80;99.90
46137;DHT22;31871;49.418;8.752;2022-09-30T15:44:35;17.90;99.90
46137;DHT22;31871;49.418;8.752;2022-09-30T15:47:08;18.00;99.90
46137;DHT22;31871;49.418;8.752;2022-09-30T15:54:54;17.60;99.90
46137;DHT22;31871;49.418;8.752;2022-09-30T15:57:39;17.50;99.90
46137;DHT22;31871;49.418;8.752;2022-09-30T16:05:44;17.60;99.90
46137;DHT22;31871;49.418;8.752;2022-09-30T16:08:20;17.70;99.90
46137;DHT22;31871;49.418;8.752;2022-09-30T16:10:52;17.80;99.90
46137;DHT22;31871;49.418;8.752;2022-09-30T16:13:21;17.90;99.90
46137;DHT22;31871;49.418;8.752;2022-09-30T16:15:51;17.90;99.90
46137;DHT22;31871;49.418;8.752;2022-09-30T16:18:20;17.70;99.90
46137;DHT22;31871;49.418;8.752;2022-09-30T16:20:57;17.50;99.90
46137;DHT22;31871;49.418;8.752;2022-09-30T16:23:35;17.10;99.90
46137;DHT22;31871;49.418;8.752;2022-09-30T16:26:21;16.70;99.90
46137;DHT22;31871;49.418;8.752;2022-09-30T16:28:53;16.40;99.90
46137;DHT22;31871;49.418;8.752;2022-09-30T16:31:21;16.20;99.90
46137;DHT22;31871;49.418;8.752;2022-09-30T16:33:47;16.20;99.90
46137;DHT22;31871;49.418;8.752;2022-09-30T16:36:14;16.20;99.90
46137;DHT22;31871;49.418;8.752;2022-09-30T16:38:40;16.10;99.90
46137;DHT22;31871;49.418;8.752;2022-09-30T16:41:12;16.10;99.90
46137;DHT22;31871;49.418;8.752;2022-09-30T16:43:38;16.10;99.90
46137;DHT22;31871;49.418;8.752;2022-09-30T16:46:04;16.10;99.90
46137;DHT22;31871;49.418;8.752;2022-09-30T16:48:30;16.00;99.90
46137;DHT22;31871;49.418;8.752;2022-09-30T16:51:15;15.80;99.90
46137;DHT22;31871;49.418;8.752;2022-09-30T16:53:41;15.70;99.90
46137;DHT22;31871;49.418;8.752;2022-09-30T16:56:18;15.60;99.90
46137;DHT22;31871;49.418;8.752;2022-09-30T16:58:45;15.50;99.90
46137;DHT22;31871;49.418;8.752;2022-09-30T17:01:19;15.40;99.90
46137;DHT22;31871;49.418;8.752;2022-09-30T17:03:45;15.40;99.90
46137;DHT22;31871;49.418;8.752;2022-09-30T17:06:15;15.30;99.90
46137;DHT22;31871;49.418;8.752;2022-09-30T17:08:42;15.40;99.90
46137;DHT22;31871;49.418;8.752;2022-09-30T17:11:08;15.60;99.90
46137;DHT22;31871;49.418;8.752;2022-09-30T17:13:34;15.50;99.90
46137;DHT22;31871;49.418;8.752;2022-09-30T17:16:00;15.30;99.90
46137;DHT22;31871;49.418;8.752;2022-09-30T17:18:26;15.20;99.90
46137;DHT22;31871;49.418;8.752;2022-09-30T17:20:52;15.10;99.90
46137;DHT22;31871;49.418;8.752;2022-09-30T17:23:22;14.90;99.90
46137;DHT22;31871;49.418;8.752;2022-09-30T17:25:48;14.90;99.90
46137;DHT22;31871;49.418;8.752;2022-09-30T17:28:17;14.80;99.90
46137;DHT22;31871;49.418;8.752;2022-09-30T17:30:44;14.70;99.90
46137;DHT22;31871;49.418;8.752;2022-09-30T17:33:11;14.60;99.90
46137;DHT22;31871;49.418;8.752;2022-09-30T17:35:37;14.50;99.90
46137;DHT22;31871;49.418;8.752;2022-09-30T17:38:10;14.50;99.90
46137;DHT22;31871;49.418;8.752;2022-09-30T17:40:35;14.40;99.90
46137;DHT22;31871;49.418;8.752;2022-09-30T17:43:20;14.30;99.90
46137;DHT22;31871;49.418;8.752;2022-09-30T17:45:46;14.40;99.90
46137;DHT22;31871;49.418;8.752;2022-09-30T17:48:16;14.40;99.90
46137;DHT22;31871;49.418;8.752;2022-09-30T17:50:47;14.40;99.90
46137;DHT22;31871;49.418;8.752;2022-09-30T17:53:14;14.40;99.90
46137;DHT22;31871;49.418;8.752;2022-09-30T17:55:44;14.50;99.90
46137;DHT22;31871;49.418;8.752;2022-09-30T17:58:13;14.40;99.90
46137;DHT22;31871;49.418;8.752;2022-09-30T18:00:41;14.30;99.90
46137;DHT22;31871;49.418;8.752;2022-09-30T18:03:10;14.20;99.90
46137;DHT22;31871;49.418;8.752;2022-09-30T18:05:36;14.10;99.90
46137;DHT22;31871;49.418;8.752;2022-09-30T18:08:02;14.10;99.90
46137;DHT22;31871;49.418;8.752;2022-09-30T18:10:30;14.10;99.90
46137;DHT22;31871;49.418;8.752;2022-09-30T18:12:56;14.20;99.90
46137;DHT22;31871;49.418;8.752;2022-09-30T18:15:23;14.30;99.90
46137;DHT22;31871;49.418;8.752;2022-09-30T18:17:50;14.40;99.90
46137;DHT22;31871;49.418;8.752;2022-09-30T18:20:16;14.30;99.90
46137;DHT22;31871;49.418;8.752;2022-09-30T18:22:42;14.30;99.90
46137;DHT22;31871;49.418;8.752;2022-09-30T18:25:08;14.10;99.90
46137;DHT22;31871;49.418;8.752;2022-09-30T18:27:57;14.00;99.90
46137;DHT22;31871;49.418;8.752;2022-09-30T18:30:24;13.90;99.90
46137;DHT22;31871;49.418;8.752;2022-09-30T18:32:51;13.70;99.90
46137;DHT22;31871;49.418;8.752;2022-09-30T18:35:19;13.50;99.90
46137;DHT22;31871;49.418;8.752;2022-09-30T18:37:46;13.40;99.90
46137;DHT22;31871;49.418;8.752;2022-09-30T18:40:14;13.30;99.90
46137;DHT22;31871;49.418;8.752;2022-09-30T18:42:42;13.30;99.90
46137;DHT22;31871;49.418;8.752;2022-09-30T18:45:08;13.30;99.90
46137;DHT22;31871;49.418;8.752;2022-09-30T18:47:40;13.30;99.90
46137;DHT22;31871;49.418;8.752;2022-09-30T18:50:10;13.20;99.90
46137;DHT22;31871;49.418;8.752;2022-09-30T18:52:37;13.10;99.90
46137;DHT22;31871;49.418;8.752;2022-09-30T18:55:03;13.20;99.90
46137;DHT22;31871;49.418;8.752;2022-09-30T18:57:29;13.30;99.90